Latest Weather Observations for Gold Coast Seaway

IDQ60801

Issued at 8:32 pm EST Sunday 21 December 2014 (issued every 30 minutes, with the page automatically refreshed every 10 minutes)

About weather observations | Map of weather stations | Latest weather observations for QLD | Other Formats
Station Details ID: 040764 Name: GOLD COAST SEAWAY Lat: -27.94 Lon: 153.43 Height: 2.98 m
Data from the previous 72 hours. | See also: Recent months at Gold Coast Seaway
Date/Time
EST
Temp
°C
App
Temp
°C
Dew
Point
Rel
Hum
%
Delta-T
°C
Wind Press
QNH
hPa
Press
MSL
hPa
Rain
since 9 am
mm
Dir
 
Spd
km/h
Gust
km/h
Spd
kts
Gust
kts
21/08:30pm 23.7 21.2 16.2 63 4.6 E 24 28 13 15 1018.1 1018.1 0.0
21/08:00pm 24.0 22.0 17.5 67 4.0 ESE 24 32 13 17 1017.9 1017.9 0.0
21/07:30pm 24.2 22.2 18.2 69 3.8 E 26 30 14 16 1017.7 1017.7 0.0
21/07:00pm 24.0 21.3 17.5 67 4.0 E 28 33 15 18 1017.1 1017.1 0.0
21/06:30pm 24.1 21.5 17.8 68 3.9 ESE 28 32 15 17 1016.8 1016.8 0.0
21/06:00pm 24.1 21.7 17.4 66 4.2 E 26 32 14 17 1016.5 1016.5 0.0
21/05:30pm 24.5 22.2 17.7 66 4.2 ESE 26 30 14 16 1016.3 1016.3 0.0
21/05:00pm 24.9 23.7 17.6 64 4.6 E 20 26 11 14 1016.3 1016.3 0.0
21/04:30pm 25.7 24.1 17.4 60 5.2 E 22 26 12 14 1015.9 1015.9 0.0
21/04:00pm 26.1 25.0 17.7 60 5.3 E 20 26 11 14 1016.1 1016.1 0.0
21/03:30pm 26.9 26.0 18.2 59 5.5 E 20 24 11 13 1016.0 1016.0 0.0
21/03:00pm 26.3 25.3 17.6 58 5.5 E 19 24 10 13 1016.2 1016.2 0.0
21/02:30pm 27.6 26.7 17.7 54 6.3 E 19 24 10 13 1016.5 1016.5 0.0
21/02:00pm 27.4 26.2 18.4 58 5.7 E 22 28 12 15 1016.5 1016.5 0.0
21/01:30pm 27.6 26.8 17.2 53 6.5 E 17 19 9 10 1016.8 1016.8 0.0
21/01:00pm 28.3 27.9 18.1 54 6.5 ESE 17 20 9 11 1017.0 1017.0 0.0
21/12:30pm 28.7 27.7 17.6 51 7.0 E 19 22 10 12 1017.3 1017.3 0.0
21/12:00pm 28.3 27.9 17.2 51 7.0 ESE 15 19 8 10 1017.8 1017.8 0.0
21/11:30am 27.5 27.5 17.1 53 6.5 E 13 15 7 8 1018.1 1018.1 0.0
21/11:00am 27.6 28.3 18.0 55 6.1 E 11 15 6 8 1018.5 1018.5 0.0
21/10:30am 27.5 27.9 18.2 57 5.9 ENE 13 17 7 9 1018.6 1018.6 0.0
21/10:00am 26.3 26.4 17.4 58 5.6 E 13 15 7 8 1018.6 1018.6 0.0
21/09:30am 26.2 25.7 17.8 60 5.3 ESE 17 20 9 11 1018.6 1018.6 0.0
21/09:00am 28.3 29.2 19.2 57 5.9 E 13 19 7 10 1018.4 1018.4 0.0
21/08:30am 26.8 27.0 17.6 57 5.8 E 13 19 7 10 1018.3 1018.3 0.0
21/08:00am 26.2 26.5 17.8 60 5.3 E 13 17 7 9 1018.2 1018.2 0.0
21/07:30am 25.9 26.0 18.3 63 4.8 ENE 15 19 8 10 1018.0 1018.0 0.0
21/07:00am 24.4 24.7 17.9 67 4.1 ENE 13 17 7 9 1017.8 1017.8 0.0
21/06:30am 23.9 23.9 18.1 70 3.6 ENE 15 17 8 9 1017.6 1017.6 0.0
21/06:00am 23.1 22.7 18.0 73 3.2 ENE 17 22 9 12 1017.3 1017.3 0.0
21/05:30am 23.0 22.2 17.2 70 3.6 E 17 20 9 11 1017.0 1017.0 0.0
21/05:00am 23.3 22.7 18.4 74 3.1 E 19 30 10 16 1016.6 1016.6 0.0
21/04:30am 23.5 23.0 17.7 70 3.6 E 17 20 9 11 1016.3 1016.3 0.0
21/04:00am 23.5 23.0 17.9 71 3.5 E 17 22 9 12 1016.2 1016.2 0.0
21/03:30am 23.4 22.4 17.6 70 3.6 E 19 24 10 13 1016.0 1016.0 0.0
21/03:00am 23.4 22.2 17.6 70 3.6 E 20 26 11 14 1016.0 1016.0 0.0
21/02:30am 23.3 21.6 17.3 69 3.7 E 22 28 12 15 1016.0 1016.0 0.0
21/02:00am 23.2 21.0 17.0 68 3.8 ESE 24 28 13 15 1016.1 1016.1 0.0
21/01:30am 23.3 21.3 17.5 70 3.6 ESE 24 28 13 15 1016.3 1016.3 0.0
21/01:00am 23.4 21.3 17.2 68 3.8 ESE 24 26 13 14 1016.6 1016.6 0.0
21/12:30am 23.5 21.5 17.5 69 3.7 ESE 24 28 13 15 1016.9 1016.9 0.0
21/12:00am 23.6 21.2 17.3 67 3.9 ESE 26 30 14 16 1017.0 1017.0 0.0
 
Date/Time
EST
Temp
°C
App
Temp
°C
Dew
Point
Rel
Hum
%
Delta-T
°C
Wind Press
QNH
hPa
Press
MSL
hPa
Rain
since 9 am
mm
Dir
 
Spd
km/h
Gust
km/h
Spd
kts
Gust
kts
20/11:30pm 23.8 21.6 17.8 69 3.7 ESE 26 30 14 16 1017.1 1017.1 0.0
20/11:00pm 23.8 22.1 18.2 71 3.5 ESE 24 28 13 15 1017.4 1017.4 0.0
20/10:30pm 23.6 22.2 18.0 71 3.5 ESE 22 28 12 15 1017.5 1017.5 0.0
20/10:00pm 23.6 22.1 17.8 70 3.6 ESE 22 26 12 14 1017.6 1017.6 0.0
20/09:30pm 24.0 23.1 18.2 70 3.6 ESE 20 26 11 14 1017.7 1017.7 0.0
20/09:00pm 23.8 22.5 17.3 67 4.0 ESE 20 24 11 13 1017.5 1017.5 0.0
20/08:30pm 23.9 22.5 17.9 69 3.8 ESE 22 26 12 14 1017.0 1017.0 0.0
20/08:00pm 23.8 22.0 17.8 69 3.7 ESE 24 30 13 16 1016.5 1016.5 0.0
20/07:30pm 24.1 21.6 18.1 69 3.8 ESE 28 32 15 17 1016.1 1016.1 0.0
20/07:00pm 24.2 21.6 17.9 68 3.9 ESE 28 32 15 17 1015.8 1015.8 0.0
20/06:30pm 24.2 21.8 17.4 65 4.2 ESE 26 30 14 16 1015.5 1015.5 0.0
20/06:00pm 24.5 22.2 17.7 66 4.2 ESE 26 32 14 17 1015.0 1015.0 0.0
20/05:30pm 25.0 22.9 18.0 65 4.4 ESE 26 32 14 17 1014.6 1014.6 0.0
20/05:00pm 25.6 23.3 17.5 61 5.1 ESE 26 30 14 16 1014.2 1014.2 0.0
20/04:30pm 26.2 23.9 17.6 59 5.4 ESE 26 28 14 15 1014.0 1014.0 0.0
20/04:00pm 26.3 24.4 17.6 58 5.5 ESE 24 30 13 16 1013.9 1013.9 0.0
20/03:30pm 26.1 23.8 17.7 60 5.3 ESE 26 30 14 16 1014.1 1014.1 0.0
20/03:00pm 27.4 25.7 18.1 57 5.9 ESE 24 30 13 16 1014.4 1014.4 0.0
20/02:30pm 27.6 25.5 18.0 55 6.1 ESE 26 32 14 17 1014.6 1014.6 0.0
20/02:00pm 27.6 25.1 17.2 53 6.5 SE 26 30 14 16 1014.9 1014.9 0.0
20/01:30pm 27.8 25.6 17.9 54 6.3 SE 26 30 14 16 1015.1 1015.1 0.0
20/01:00pm 28.5 26.9 18.3 54 6.5 ESE 24 30 13 16 1015.3 1015.3 0.0
20/12:30pm 27.2 24.9 17.7 56 6.0 SE 26 30 14 16 1015.6 1015.6 0.0
20/12:00pm 28.0 25.8 17.8 54 6.5 SE 26 30 14 16 1015.8 1015.8 0.0
20/11:30am 28.2 26.1 18.0 54 6.5 SE 26 30 14 16 1016.2 1016.2 0.0
20/11:00am 28.0 26.2 18.7 57 6.0 SE 26 30 14 16 1016.4 1016.4 0.0
20/10:30am 27.5 25.6 18.5 58 5.7 SE 26 30 14 16 1016.4 1016.4 0.0
20/10:00am 27.7 26.0 19.0 59 5.6 SE 26 30 14 16 1016.5 1016.5 0.0
20/09:30am 27.2 25.0 17.9 56 5.9 SE 26 30 14 16 1016.5 1016.5 0.0
20/09:00am 27.2 25.8 18.8 60 5.4 SE 24 28 13 15 1016.4 1016.4 0.2
20/08:30am 25.5 23.7 17.9 63 4.8 SSE 24 30 13 16 1016.2 1016.2 0.2
20/08:00am 26.5 24.5 18.4 61 5.1 SSE 26 32 14 17 1016.1 1016.1 0.2
20/07:30am 25.9 24.5 18.8 65 4.5 SSE 24 30 13 16 1015.8 1015.8 0.2
20/07:00am 25.5 23.8 18.9 67 4.2 S 26 30 14 16 1015.6 1015.6 0.2
20/06:30am 24.2 22.2 18.4 70 3.7 S 26 32 14 17 1015.2 1015.2 0.2
20/06:00am 23.2 20.8 18.3 74 3.1 S 28 33 15 18 1014.9 1014.9 0.2
20/05:30am 22.7 20.8 18.5 77 2.6 S 26 32 14 17 1014.6 1014.6 0.2
20/05:00am 22.1 20.9 17.5 75 2.8 S 20 26 11 14 1014.2 1014.2 0.2
20/04:30am 22.1 20.5 17.5 75 2.8 S 22 30 12 16 1013.9 1013.9 0.2
20/04:00am 22.1 20.9 17.5 75 2.8 S 20 28 11 15 1013.7 1013.7 0.2
20/03:30am 22.1 21.1 17.5 75 2.8 S 19 28 10 15 1013.5 1013.5 0.2
20/03:00am 22.2 20.9 17.3 74 3.0 S 20 28 11 15 1013.5 1013.5 0.2
20/02:30am 22.3 20.7 17.4 74 3.0 S 22 28 12 15 1013.3 1013.3 0.2
20/02:00am 22.4 20.4 17.3 73 3.1 S 24 35 13 19 1013.4 1013.4 0.2
20/01:30am 22.9 19.8 18.4 76 2.8 S 32 39 17 21 1013.3 1013.3 0.2
20/01:00am 23.2 19.6 18.5 75 3.0 S 35 43 19 23 1013.4 1013.4 0.2
20/12:30am 23.2 19.6 18.5 75 3.0 S 35 44 19 24 1013.7 1013.7 0.2
20/12:00am 23.2 19.1 18.3 74 3.1 S 37 44 20 24 1013.9 1013.9 0.2
 
Date/Time
EST
Temp
°C
App
Temp
°C
Dew
Point
Rel
Hum
%
Delta-T
°C
Wind Press
QNH
hPa
Press
MSL
hPa
Rain
since 9 am
mm
Dir
 
Spd
km/h
Gust
km/h
Spd
kts
Gust
kts
19/11:30pm 23.2 19.2 18.5 75 3.0 S 37 44 20 24 1014.1 1014.1 0.2
19/11:00pm 23.4 19.2 18.9 76 2.9 S 39 46 21 25 1014.2 1014.2 0.2
19/10:30pm 23.6 20.0 19.3 77 2.7 S 37 44 20 24 1014.2 1014.2 0.2
19/10:00pm 23.8 20.1 19.9 79 2.5 SSE 39 48 21 26 1014.1 1014.1 0.2
19/09:30pm 24.2 21.1 20.5 80 2.4 SSE 37 44 20 24 1013.8 1013.8 0.2
19/09:00pm 24.4 21.7 20.5 79 2.5 SSE 35 44 19 24 1013.5 1013.5 0.2
19/08:30pm 24.8 22.7 20.9 79 2.6 SSE 33 41 18 22 1013.2 1013.2 0.2
19/08:00pm 24.9 22.6 21.2 80 2.4 SSE 35 43 19 23 1012.8 1012.8 0.2
19/07:43pm 24.7 25.0 21.6 83 2.1 SE 22 39 12 21 1012.5 1012.5 0.2
19/07:30pm 24.6 27.1 22.5 88 1.4 ESE 13 17 7 9 1012.3 1012.3 0.2
19/07:00pm 25.1 27.9 23.0 88 1.4 E 13 15 7 8 1011.8 1011.8 0.2
19/06:30pm 25.4 28.2 22.3 83 2.1 E 11 15 6 8 1011.3 1011.3 0.2
19/06:00pm 26.0 27.9 22.7 82 2.2 ENE 17 17 9 9 1010.9 1010.9 0.2
19/05:30pm 25.8 26.6 22.5 82 2.2 ENE 22 28 12 15 1010.0 1010.0 0.2
19/05:00pm 26.7 26.6 22.3 77 3.0 ENE 26 33 14 18 1009.2 1009.2 0.2
19/04:30pm 27.0 27.0 22.4 76 3.1 NNE 26 30 14 16 1008.2 1008.2 0.2
19/04:00pm 27.8 27.7 22.3 72 3.7 NNE 26 30 14 16 1007.9 1007.9 0.2
19/03:30pm 28.4 28.0 22.4 70 4.1 NNE 28 32 15 17 1007.8 1007.8 0.2
19/03:00pm 28.3 28.4 22.5 71 3.9 NE 26 30 14 16 1008.0 1008.0 0.2
19/02:30pm 28.5 28.2 22.5 70 4.1 NE 28 32 15 17 1008.4 1008.4 0.2
19/02:00pm 28.0 27.8 22.0 70 4.0 ENE 26 30 14 16 1008.6 1008.6 0.2
19/01:30pm 29.6 29.8 22.8 67 4.6 ENE 26 30 14 16 1008.8 1008.8 0.2
19/01:00pm 30.7 31.6 21.5 58 6.2 ENE 19 26 10 14 1009.1 1009.1 0.2
19/12:30pm 31.9 31.4 15.0 36 10.4 NW 11 17 6 9 1009.3 1009.3 0.2
19/12:00pm 31.0 30.6 16.2 41 9.3 NW 13 20 7 11 1009.6 1009.6 0.2
19/11:30am 30.2 29.7 15.9 42 8.9 WNW 13 19 7 10 1009.9 1009.9 0.2
19/11:00am 29.6 28.9 16.4 45 8.2 NW 15 22 8 12 1010.2 1010.2 0.2
19/10:30am 28.5 28.2 17.4 51 7.0 NW 15 19 8 10 1010.4 1010.4 0.2
19/10:00am 27.6 27.8 18.6 58 5.8 NW 15 22 8 12 1010.5 1010.5 0.2
19/09:30am 26.7 25.8 17.7 57 5.7 NW 19 26 10 14 1010.8 1010.8 0.0
19/09:00am 25.7 25.7 18.9 66 4.3 NW 17 22 9 12 1011.0 1011.0 15.2
19/08:30am 24.0 24.4 18.9 73 3.2 NW 15 19 8 10 1011.2 1011.2 15.2
19/08:00am 22.8 23.7 19.2 80 2.3 NNW 13 15 7 8 1011.3 1011.3 15.2
19/07:30am 22.4 23.7 19.2 82 2.0 NNW 11 13 6 7 1011.2 1011.2 15.2
19/07:00am 21.7 23.0 19.3 86 1.5 NW 11 13 6 7 1011.2 1011.2 15.2
19/06:30am 21.2 22.8 20.0 93 0.8 WNW 11 15 6 8 1011.1 1011.1 15.2
19/06:00am 20.9 22.5 20.7 99 0.1 NW 13 15 7 8 1010.9 1010.9 15.2
19/05:30am 21.0 22.7 21.0 100 0.0 WNW 13 15 7 8 1010.9 1010.9 15.2
19/05:00am 21.0 23.4 20.8 99 0.1 N 9 13 5 7 1010.9 1010.9 15.2
19/04:30am 20.8 23.2 20.8 100 0.0 NNW 9 13 5 7 1010.3 1010.3 15.2
19/04:00am 20.9 23.3 20.9 100 0.0 WNW 9 13 5 7 1010.6 1010.6 15.2
19/03:30am 20.5 23.0 20.3 99 0.1 WSW 7 11 4 6 1010.6 1010.6 15.2
19/03:00am 20.5 23.0 20.3 99 0.1 SW 7 9 4 5 1010.6 1010.6 15.0
19/02:30am 20.4 22.5 20.2 99 0.1 WSW 9 17 5 9 1011.2 1011.2 14.8
19/02:00am 20.7 21.6 19.2 91 0.9 WSW 13 19 7 10 1011.7 1011.7 13.8
19/01:30am 21.1 21.1 19.0 88 1.3 WSW 17 26 9 14 1011.8 1011.8 13.2
19/01:00am 22.6 24.0 22.6 100 0.0 W 19 26 10 14 1011.9 1011.9 12.4
19/12:30am 22.8 25.5 22.8 100 0.0 NW 13 17 7 9 1011.6 1011.6 11.6
19/12:00am 23.0 26.8 22.8 99 0.1 NNW 7 11 4 6 1011.5 1011.5 10.8
 
Date/Time
EST
Temp
°C
App
Temp
°C
Dew
Point
Rel
Hum
%
Delta-T
°C
Wind Press
QNH
hPa
Press
MSL
hPa
Rain
since 9 am
mm
Dir
 
Spd
km/h
Gust
km/h
Spd
kts
Gust
kts
18/11:30pm 22.8 26.5 22.6 99 0.1 N 7 11 4 6 1011.0 1011.0 10.6
18/11:00pm 22.8 25.0 22.6 99 0.1 N 15 19 8 10 1011.1 1011.1 10.4
18/10:30pm 23.1 26.2 22.9 99 0.1 NNW 11 13 6 7 1011.0 1011.0 10.2
18/10:00pm 23.2 25.2 23.0 99 0.1 NW 17 20 9 11 1010.8 1010.8 10.2
18/09:30pm 23.4 27.0 23.1 98 0.2 N 9 11 5 6 1010.4 1010.4 10.2
18/09:00pm 23.5 27.3 22.7 95 0.5 N 7 11 4 6 1010.4 1010.4 10.0

Other Formats:

Comma delimited format used in spreadsheet applications
http://www.bom.gov.au/fwo/IDQ60801/IDQ60801.94580.axf

JavaScript Object Notation format (JSON) in row-major order
http://www.bom.gov.au/fwo/IDQ60801/IDQ60801.94580.json